createdAt,value
2019-02-27T00:00:43.972Z,0.00
2019-02-27T00:01:42.429Z,0.00
2019-02-27T00:02:42.393Z,0.00
2019-02-27T00:03:42.383Z,0.00
2019-02-27T00:04:42.372Z,0.00
2019-02-27T00:05:42.446Z,0.00
2019-02-27T00:06:42.363Z,0.00
2019-02-27T00:07:42.342Z,0.00
2019-02-27T00:08:42.335Z,0.00
2019-02-27T00:09:42.316Z,0.00
2019-02-27T00:10:42.309Z,0.00
2019-02-27T00:11:45.845Z,0.00
2019-02-27T00:12:42.287Z,0.00
2019-02-27T00:13:42.276Z,0.00
2019-02-27T00:14:42.264Z,0.00
2019-02-27T00:15:42.252Z,0.00
2019-02-27T00:16:44.592Z,0.00
2019-02-27T00:17:42.244Z,0.00
2019-02-27T00:18:42.225Z,0.00
2019-02-27T00:19:42.210Z,0.00
2019-02-27T00:20:42.202Z,0.00
2019-02-27T00:21:43.531Z,0.00
2019-02-27T00:22:42.194Z,0.00
2019-02-27T00:23:42.246Z,0.00
2019-02-27T00:24:42.161Z,0.00
2019-02-27T00:25:42.148Z,0.00
2019-02-27T00:26:42.457Z,0.00
2019-02-27T00:27:42.143Z,0.00
2019-02-27T00:28:42.122Z,0.00
2019-02-27T00:29:42.102Z,0.00
2019-02-27T00:30:42.090Z,0.00
2019-02-27T00:31:45.224Z,0.00
2019-02-27T00:32:42.104Z,0.00
2019-02-27T00:33:42.056Z,0.00
2019-02-27T00:34:42.048Z,0.00
2019-02-27T00:35:42.037Z,0.00
2019-02-27T00:36:44.897Z,0.00
2019-02-27T00:37:42.021Z,0.00
2019-02-27T00:38:42.027Z,0.00
2019-02-27T00:39:41.992Z,0.00
2019-02-27T00:40:41.984Z,0.00
2019-02-27T00:41:45.685Z,0.00
2019-02-27T00:42:41.965Z,0.00
2019-02-27T00:43:41.981Z,0.00
2019-02-27T00:44:41.941Z,0.00
2019-02-27T00:45:41.927Z,0.00
2019-02-27T00:46:44.024Z,0.00
2019-02-27T00:47:41.915Z,0.00
2019-02-27T00:48:41.928Z,0.00
2019-02-27T00:49:41.889Z,0.00
2019-02-27T00:50:41.891Z,0.00
2019-02-27T00:51:44.706Z,0.00
2019-02-27T00:52:41.857Z,0.00
2019-02-27T00:53:41.864Z,0.00
2019-02-27T00:54:41.836Z,0.00
2019-02-27T00:55:41.827Z,0.00
2019-02-27T00:56:44.794Z,0.00
2019-02-27T00:57:41.808Z,0.00
2019-02-27T00:58:41.810Z,0.00
2019-02-27T00:59:41.785Z,0.00
2019-02-27T01:00:41.775Z,0.00
2019-02-27T01:01:41.768Z,0.00
2019-02-27T01:02:41.756Z,0.00
2019-02-27T01:03:41.762Z,0.00
2019-02-27T01:04:41.738Z,0.00
2019-02-27T01:05:41.769Z,0.00
2019-02-27T01:06:41.718Z,0.00
2019-02-27T01:07:41.695Z,0.00
2019-02-27T01:08:41.732Z,0.00
2019-02-27T01:09:41.675Z,0.00
2019-02-27T01:10:42.876Z,0.00
2019-02-27T01:11:41.659Z,0.00
2019-02-27T01:12:41.644Z,0.00
2019-02-27T01:13:41.638Z,0.00
2019-02-27T01:14:41.638Z,0.00
2019-02-27T01:15:41.768Z,0.00
2019-02-27T01:16:41.605Z,0.00
2019-02-27T01:17:41.593Z,0.00
2019-02-27T01:18:41.583Z,0.00
2019-02-27T01:19:42.816Z,0.00
2019-02-27T01:20:45.543Z,0.00
2019-02-27T01:21:41.549Z,0.00
2019-02-27T01:22:41.539Z,0.00
2019-02-27T01:23:43.894Z,0.00
2019-02-27T01:24:41.545Z,0.00
2019-02-27T01:25:41.514Z,0.00
2019-02-27T01:26:41.506Z,0.00
2019-02-27T01:27:41.490Z,0.00
2019-02-27T01:28:44.636Z,0.00
2019-02-27T01:29:41.483Z,0.00
2019-02-27T01:30:41.455Z,0.00
2019-02-27T01:31:41.445Z,0.00
2019-02-27T01:32:41.437Z,0.00
2019-02-27T01:33:41.426Z,0.00
2019-02-27T01:34:44.138Z,0.00
2019-02-27T01:35:41.400Z,0.00
2019-02-27T01:36:41.405Z,0.00
2019-02-27T01:37:41.379Z,0.00
2019-02-27T01:38:41.377Z,0.00
2019-02-27T01:39:41.819Z,0.00
2019-02-27T01:40:41.355Z,0.00
2019-02-27T01:41:41.343Z,0.00
2019-02-27T01:42:41.329Z,0.00
2019-02-27T01:43:41.320Z,0.00
2019-02-27T01:44:43.965Z,0.00
2019-02-27T01:45:42.300Z,0.00
2019-02-27T01:46:41.285Z,0.00
2019-02-27T01:47:41.285Z,0.00
2019-02-27T01:48:43.619Z,0.00
2019-02-27T01:49:41.294Z,0.00
2019-02-27T01:50:41.245Z,0.00
2019-02-27T01:51:41.239Z,0.00
2019-02-27T01:52:41.222Z,0.00
2019-02-27T01:53:41.307Z,0.00
2019-02-27T01:54:41.224Z,0.00
2019-02-27T01:55:41.195Z,0.00
2019-02-27T01:56:41.181Z,0.00
2019-02-27T01:57:41.167Z,0.00
2019-02-27T01:58:44.097Z,0.00
2019-02-27T01:59:41.151Z,0.00
2019-02-27T02:00:41.154Z,0.00
2019-02-27T02:01:41.129Z,0.00
2019-02-27T02:02:41.111Z,0.00
2019-02-27T02:03:41.108Z,0.00
2019-02-27T02:04:41.093Z,0.00
2019-02-27T02:05:41.101Z,0.00
2019-02-27T02:06:41.073Z,0.00
2019-02-27T02:07:41.067Z,0.00
2019-02-27T02:08:41.054Z,0.00
2019-02-27T02:09:41.039Z,0.00
2019-02-27T02:10:41.046Z,0.00
2019-02-27T02:11:41.271Z,0.00
2019-02-27T02:12:41.663Z,0.00
2019-02-27T02:13:41.003Z,0.00
2019-02-27T02:14:41.011Z,0.00
2019-02-27T02:15:40.991Z,0.00
2019-02-27T02:16:40.987Z,0.00
2019-02-27T02:17:41.627Z,0.00
2019-02-27T02:18:40.951Z,0.00
2019-02-27T02:19:40.935Z,0.00
2019-02-27T02:20:40.940Z,0.00
2019-02-27T02:21:40.921Z,0.00
2019-02-27T02:22:41.290Z,0.00
2019-02-27T02:23:40.895Z,0.00
2019-02-27T02:24:40.879Z,0.00
2019-02-27T02:25:40.916Z,0.00
2019-02-27T02:26:40.866Z,0.00
2019-02-27T02:27:41.542Z,0.00
2019-02-27T02:28:40.844Z,0.00
2019-02-27T02:29:40.837Z,0.00
2019-02-27T02:30:40.838Z,0.00
2019-02-27T02:31:42.496Z,0.00
2019-02-27T02:32:40.801Z,0.00
2019-02-27T02:33:40.791Z,0.00
2019-02-27T02:34:41.012Z,0.00
2019-02-27T02:35:40.794Z,0.00
2019-02-27T02:36:40.758Z,0.00
2019-02-27T02:37:40.742Z,0.00
2019-02-27T02:38:40.732Z,0.00
2019-02-27T02:39:40.736Z,0.00
2019-02-27T02:40:40.720Z,0.00
2019-02-27T02:41:46.246Z,0.00
2019-02-27T02:42:41.701Z,0.00
2019-02-27T02:43:41.987Z,0.00
2019-02-27T02:44:40.670Z,0.00
2019-02-27T02:45:40.673Z,0.00
2019-02-27T02:46:44.890Z,0.00
2019-02-27T02:47:40.640Z,0.00
2019-02-27T02:48:40.627Z,0.00
2019-02-27T02:49:42.651Z,0.00
2019-02-27T02:50:40.611Z,0.00
2019-02-27T02:51:40.613Z,0.00
2019-02-27T02:52:41.627Z,0.00
2019-02-27T02:53:40.576Z,0.00
2019-02-27T02:54:40.566Z,0.00
2019-02-27T02:55:40.561Z,0.00
2019-02-27T02:56:40.565Z,0.00
2019-02-27T02:57:40.533Z,0.00
2019-02-27T02:58:47.162Z,0.00
2019-02-27T02:59:41.512Z,0.00
2019-02-27T03:00:40.504Z,0.00
2019-02-27T03:01:40.504Z,0.00
2019-02-27T03:02:40.493Z,0.00
2019-02-27T03:03:40.467Z,0.00
2019-02-27T03:04:40.463Z,0.00
2019-02-27T03:05:40.446Z,0.00
2019-02-27T03:06:40.471Z,0.00
2019-02-27T03:07:44.437Z,0.00
2019-02-27T03:08:41.412Z,0.00
2019-02-27T03:09:40.407Z,0.00
2019-02-27T03:10:42.876Z,0.00
2019-02-27T03:11:40.389Z,0.00
2019-02-27T03:12:40.384Z,0.00
2019-02-27T03:13:41.970Z,0.00
2019-02-27T03:14:40.354Z,0.00
2019-02-27T03:15:40.341Z,0.00
2019-02-27T03:16:41.415Z,0.00
2019-02-27T03:17:40.335Z,0.00
2019-02-27T03:18:40.316Z,0.00
2019-02-27T03:19:41.775Z,0.00
2019-02-27T03:20:40.290Z,0.00
2019-02-27T03:21:40.280Z,0.00
2019-02-27T03:22:41.621Z,0.00
2019-02-27T03:23:40.260Z,0.00
2019-02-27T03:24:40.247Z,0.00
2019-02-27T03:25:41.781Z,0.00
2019-02-27T03:26:40.223Z,0.00
2019-02-27T03:27:40.231Z,0.00
2019-02-27T03:28:40.945Z,0.00
2019-02-27T03:29:40.207Z,0.00
2019-02-27T03:30:40.241Z,0.00
2019-02-27T03:31:40.176Z,0.00
2019-02-27T03:32:43.246Z,0.00
2019-02-27T03:33:40.157Z,0.00
2019-02-27T03:34:48.019Z,0.00
2019-02-27T03:35:41.127Z,0.00
2019-02-27T03:36:40.122Z,0.00
2019-02-27T03:37:40.121Z,0.00
2019-02-27T03:38:40.104Z,0.00
2019-02-27T03:39:40.093Z,0.00
2019-02-27T03:40:40.078Z,0.00
2019-02-27T03:41:40.071Z,0.00
2019-02-27T03:42:40.075Z,0.00
2019-02-27T03:43:45.625Z,0.00
2019-02-27T03:44:41.040Z,0.00
2019-02-27T03:45:40.029Z,0.00
2019-02-27T03:46:41.736Z,0.00
2019-02-27T03:47:40.014Z,0.00
2019-02-27T03:48:40.071Z,0.00
2019-02-27T03:49:40.897Z,0.00
2019-02-27T03:50:39.980Z,0.00
2019-02-27T03:51:39.963Z,0.00
2019-02-27T03:52:39.971Z,0.00
2019-02-27T03:53:43.262Z,0.00
2019-02-27T03:54:40.959Z,0.00
2019-02-27T03:55:39.915Z,0.00
2019-02-27T03:56:43.486Z,0.00
2019-02-27T03:57:39.930Z,0.00
2019-02-27T03:58:39.888Z,0.00
2019-02-27T03:59:42.649Z,0.00
2019-02-27T04:00:42.057Z,0.00
2019-02-27T04:01:39.856Z,0.00
2019-02-27T04:02:42.047Z,0.00
2019-02-27T04:03:39.846Z,0.00
2019-02-27T04:04:39.824Z,0.00
2019-02-27T04:05:42.158Z,0.00
2019-02-27T04:06:40.803Z,0.00
2019-02-27T04:07:39.824Z,0.00
2019-02-27T04:08:43.506Z,0.00
2019-02-27T04:09:39.780Z,0.00
2019-02-27T04:10:39.762Z,0.00
2019-02-27T04:11:42.568Z,0.00
2019-02-27T04:12:39.756Z,0.00
2019-02-27T04:13:39.730Z,0.00
2019-02-27T04:14:41.993Z,0.00
2019-02-27T04:15:39.708Z,0.00
2019-02-27T04:16:39.696Z,0.00
2019-02-27T04:17:39.706Z,0.00
2019-02-27T04:18:39.679Z,0.00
2019-02-27T04:19:40.449Z,0.00
2019-02-27T04:20:39.658Z,0.00
2019-02-27T04:21:39.646Z,0.00
2019-02-27T04:22:39.658Z,0.00
2019-02-27T04:23:39.620Z,0.00
2019-02-27T04:24:39.613Z,0.00
2019-02-27T04:25:39.608Z,0.00
2019-02-27T04:26:41.911Z,0.00
2019-02-27T04:27:39.593Z,0.00
2019-02-27T04:28:39.571Z,0.00
2019-02-27T04:29:41.123Z,0.00
2019-02-27T04:30:39.549Z,0.00
2019-02-27T04:31:39.545Z,0.00
2019-02-27T04:32:39.541Z,0.00
2019-02-27T04:33:39.515Z,0.00
2019-02-27T04:34:39.504Z,0.00
2019-02-27T04:35:40.145Z,0.00
2019-02-27T04:36:39.487Z,0.00
2019-02-27T04:37:39.501Z,0.00
2019-02-27T04:38:39.462Z,0.00
2019-02-27T04:39:39.452Z,0.00
2019-02-27T04:40:41.744Z,0.00
2019-02-27T04:41:39.434Z,0.00
2019-02-27T04:42:39.419Z,0.00
2019-02-27T04:43:39.424Z,0.00
2019-02-27T04:44:39.638Z,0.00
2019-02-27T04:45:39.386Z,0.00
2019-02-27T04:46:39.380Z,0.00
2019-02-27T04:47:39.372Z,0.00
2019-02-27T04:48:39.367Z,0.00
2019-02-27T04:49:39.359Z,0.00
2019-02-27T04:50:41.720Z,0.00
2019-02-27T04:51:39.322Z,0.00
2019-02-27T04:52:39.314Z,0.00
2019-02-27T04:53:40.822Z,0.00
2019-02-27T04:54:41.535Z,0.00
2019-02-27T04:55:39.286Z,0.00
2019-02-27T04:56:39.272Z,0.00
2019-02-27T04:57:39.270Z,0.00
2019-02-27T04:58:42.864Z,0.00
2019-02-27T04:59:39.238Z,0.00
2019-02-27T05:00:39.244Z,0.00
2019-02-27T05:01:39.223Z,4.00
2019-02-27T05:02:39.206Z,4.00
2019-02-27T05:03:39.213Z,8.00
2019-02-27T05:04:39.188Z,0.00
2019-02-27T05:05:41.406Z,0.00
2019-02-27T05:06:39.166Z,0.00
2019-02-27T05:07:39.160Z,0.00
2019-02-27T05:08:39.165Z,0.00
2019-02-27T05:09:39.136Z,0.00
2019-02-27T05:10:40.595Z,0.00
2019-02-27T05:11:39.131Z,0.00
2019-02-27T05:12:39.102Z,0.00
2019-02-27T05:13:39.106Z,0.00
2019-02-27T05:14:39.081Z,0.00
2019-02-27T05:15:39.691Z,0.00
2019-02-27T05:16:39.066Z,0.00
2019-02-27T05:17:39.052Z,0.00
2019-02-27T05:18:39.056Z,0.00
2019-02-27T05:19:39.032Z,0.00
2019-02-27T05:20:39.034Z,0.00
2019-02-27T05:21:39.015Z,0.00
2019-02-27T05:22:38.992Z,0.00
2019-02-27T05:23:39.001Z,0.00
2019-02-27T05:24:41.021Z,0.00
2019-02-27T05:25:38.964Z,0.00
2019-02-27T05:26:38.954Z,0.00
2019-02-27T05:27:38.944Z,0.00
2019-02-27T05:28:38.954Z,0.00
2019-02-27T05:29:38.917Z,0.00
2019-02-27T05:30:38.914Z,0.00
2019-02-27T05:31:38.899Z,8.00
2019-02-27T05:32:38.890Z,4.00
2019-02-27T05:33:39.899Z,0.00
2019-02-27T05:34:38.887Z,0.00
2019-02-27T05:35:38.864Z,0.00
2019-02-27T05:36:38.853Z,0.00
2019-02-27T05:37:39.437Z,0.00
2019-02-27T05:38:40.965Z,4.00
2019-02-27T05:39:38.835Z,4.00
2019-02-27T05:40:38.810Z,4.00
2019-02-27T05:41:38.790Z,0.00
2019-02-27T05:42:39.554Z,4.00
2019-02-27T05:43:38.775Z,4.00
2019-02-27T05:44:38.773Z,4.00
2019-02-27T05:45:38.757Z,12.00
2019-02-27T05:46:39.131Z,12.00
2019-02-27T05:47:38.730Z,12.00
2019-02-27T05:48:38.722Z,12.00
2019-02-27T05:49:38.723Z,16.00
2019-02-27T05:50:38.702Z,16.00
2019-02-27T05:51:38.688Z,16.00
2019-02-27T05:52:38.687Z,16.00
2019-02-27T05:53:38.675Z,60.00
2019-02-27T05:54:38.673Z,64.00
2019-02-27T05:55:39.220Z,68.00
2019-02-27T05:56:38.638Z,68.00
2019-02-27T05:57:38.631Z,68.00
2019-02-27T05:58:38.618Z,76.00
2019-02-27T05:59:38.629Z,80.00
2019-02-27T06:00:38.598Z,84.00
2019-02-27T06:01:38.763Z,88.00
2019-02-27T06:02:38.580Z,88.00
2019-02-27T06:03:38.565Z,92.00
2019-02-27T06:04:38.570Z,96.00
2019-02-27T06:05:38.539Z,100.00
2019-02-27T06:06:38.534Z,100.00
2019-02-27T06:07:38.524Z,100.00
2019-02-27T06:08:38.512Z,104.00
2019-02-27T06:09:38.521Z,112.00
2019-02-27T06:10:38.488Z,116.00
2019-02-27T06:11:38.474Z,116.00
2019-02-27T06:12:40.875Z,120.00
2019-02-27T06:13:38.479Z,124.00
2019-02-27T06:14:38.445Z,132.00
2019-02-27T06:15:38.450Z,136.00
2019-02-27T06:16:40.717Z,136.00
2019-02-27T06:17:43.329Z,144.00
2019-02-27T06:18:39.422Z,148.00
2019-02-27T06:19:38.392Z,152.00
2019-02-27T06:20:41.588Z,156.00
2019-02-27T06:21:38.922Z,160.00
2019-02-27T06:22:38.356Z,164.00
2019-02-27T06:23:38.505Z,168.00
2019-02-27T06:24:38.331Z,172.00
2019-02-27T06:25:38.340Z,176.00
2019-02-27T06:26:38.326Z,180.00
2019-02-27T06:27:39.451Z,184.00
2019-02-27T06:28:38.295Z,192.00
2019-02-27T06:29:38.277Z,192.00
2019-02-27T06:30:38.285Z,200.00
2019-02-27T06:31:39.544Z,204.00
2019-02-27T06:32:38.246Z,168.00
2019-02-27T06:33:38.235Z,176.00
2019-02-27T06:34:38.235Z,180.00
2019-02-27T06:35:38.228Z,192.00
2019-02-27T06:36:41.981Z,200.00
2019-02-27T06:37:38.193Z,204.00
2019-02-27T06:38:38.191Z,212.00
2019-02-27T06:39:38.174Z,212.00
2019-02-27T06:40:42.040Z,216.00
2019-02-27T06:41:39.868Z,224.00
2019-02-27T06:42:38.143Z,228.00
2019-02-27T06:43:38.131Z,228.00
2019-02-27T06:44:39.258Z,236.00
2019-02-27T06:45:38.121Z,236.00
2019-02-27T06:46:38.098Z,240.00
2019-02-27T06:47:38.086Z,248.00
2019-02-27T06:48:38.085Z,252.00
2019-02-27T06:49:38.063Z,256.00
2019-02-27T06:50:38.081Z,264.00
2019-02-27T06:51:38.043Z,264.00
2019-02-27T06:52:42.063Z,268.00
2019-02-27T06:53:38.021Z,272.00
2019-02-27T06:54:38.009Z,276.00
2019-02-27T06:55:38.006Z,276.00
2019-02-27T06:56:38.005Z,280.00
2019-02-27T06:57:40.907Z,284.00
2019-02-27T06:58:37.969Z,288.00
2019-02-27T06:59:37.964Z,292.00
2019-02-27T07:00:37.947Z,292.00
2019-02-27T07:01:37.954Z,300.00
2019-02-27T07:02:37.926Z,304.00
2019-02-27T07:03:37.920Z,304.00
2019-02-27T07:04:39.516Z,308.00
2019-02-27T07:05:37.909Z,312.00
2019-02-27T07:06:37.904Z,316.00
2019-02-27T07:07:37.877Z,316.00
2019-02-27T07:08:38.649Z,320.00
2019-02-27T07:09:37.859Z,320.00
2019-02-27T07:10:37.845Z,320.00
2019-02-27T07:11:37.847Z,324.00
2019-02-27T07:12:37.823Z,328.00
2019-02-27T07:13:37.815Z,328.00
2019-02-27T07:14:39.192Z,332.00
2019-02-27T07:15:37.792Z,336.00
2019-02-27T07:16:37.795Z,336.00
2019-02-27T07:17:37.769Z,340.00
2019-02-27T07:18:41.530Z,340.00
2019-02-27T07:19:37.747Z,344.00
2019-02-27T07:20:37.735Z,344.00
2019-02-27T07:21:37.743Z,348.00
2019-02-27T07:22:37.717Z,352.00
2019-02-27T07:23:37.723Z,352.00
2019-02-27T07:24:37.698Z,356.00
2019-02-27T07:25:42.009Z,356.00
2019-02-27T07:26:38.687Z,360.00
2019-02-27T07:27:37.663Z,360.00
2019-02-27T07:28:37.648Z,356.00
2019-02-27T07:29:37.641Z,360.00
2019-02-27T07:30:39.873Z,364.00
2019-02-27T07:31:37.646Z,364.00
2019-02-27T07:32:37.613Z,364.00
2019-02-27T07:33:38.043Z,368.00
2019-02-27T07:34:37.578Z,372.00
2019-02-27T07:35:37.575Z,372.00
2019-02-27T07:36:38.530Z,372.00
2019-02-27T07:37:37.569Z,372.00
2019-02-27T07:38:37.541Z,372.00
2019-02-27T07:39:37.530Z,376.00
2019-02-27T07:40:37.519Z,376.00
2019-02-27T07:41:37.507Z,376.00
2019-02-27T07:42:37.510Z,376.00
2019-02-27T07:43:37.489Z,384.00
2019-02-27T07:44:37.474Z,380.00
2019-02-27T07:45:37.466Z,380.00
2019-02-27T07:46:37.455Z,384.00
2019-02-27T07:47:37.453Z,384.00
2019-02-27T07:48:37.433Z,388.00
2019-02-27T07:49:37.420Z,388.00
2019-02-27T07:50:37.408Z,388.00
2019-02-27T07:51:37.392Z,388.00
2019-02-27T07:52:37.413Z,392.00
2019-02-27T07:53:37.374Z,392.00
2019-02-27T07:54:37.357Z,396.00
2019-02-27T07:55:37.351Z,396.00
2019-02-27T07:56:37.350Z,400.00
2019-02-27T07:57:37.344Z,400.00
2019-02-27T07:58:37.315Z,400.00
2019-02-27T07:59:38.276Z,400.00
2019-02-27T08:00:37.295Z,404.00
2019-02-27T08:01:43.669Z,404.00
2019-02-27T08:02:38.290Z,404.00
2019-02-27T08:03:37.259Z,408.00
2019-02-27T08:04:37.249Z,408.00
2019-02-27T08:05:37.242Z,408.00
2019-02-27T08:06:37.753Z,408.00
2019-02-27T08:07:37.229Z,412.00
2019-02-27T08:08:37.222Z,416.00
2019-02-27T08:09:37.201Z,416.00
2019-02-27T08:10:37.540Z,416.00
2019-02-27T08:11:37.174Z,420.00
2019-02-27T08:12:37.191Z,420.00
2019-02-27T08:13:37.149Z,424.00
2019-02-27T08:14:37.805Z,424.00
2019-02-27T08:15:37.136Z,424.00
2019-02-27T08:16:37.142Z,428.00
2019-02-27T08:17:37.113Z,428.00
2019-02-27T08:18:38.151Z,428.00
2019-02-27T08:19:37.092Z,428.00
2019-02-27T08:20:37.082Z,428.00
2019-02-27T08:21:37.074Z,432.00
2019-02-27T08:22:37.060Z,432.00
2019-02-27T08:23:37.066Z,436.00
2019-02-27T08:24:37.038Z,436.00
2019-02-27T08:25:37.035Z,436.00
2019-02-27T08:26:37.065Z,440.00
2019-02-27T08:27:37.011Z,440.00
2019-02-27T08:28:37.018Z,440.00
2019-02-27T08:29:36.986Z,444.00
2019-02-27T08:30:36.977Z,440.00
2019-02-27T08:31:36.984Z,440.00
2019-02-27T08:32:36.967Z,444.00
2019-02-27T08:33:36.962Z,444.00
2019-02-27T08:34:36.941Z,444.00
2019-02-27T08:35:36.930Z,448.00
2019-02-27T08:36:36.917Z,448.00
2019-02-27T08:37:36.910Z,444.00
2019-02-27T08:38:36.920Z,440.00
2019-02-27T08:39:36.888Z,448.00
2019-02-27T08:40:36.878Z,448.00
2019-02-27T08:41:36.866Z,448.00
2019-02-27T08:42:38.492Z,448.00
2019-02-27T08:43:36.878Z,452.00
2019-02-27T08:44:36.836Z,452.00
2019-02-27T08:45:36.825Z,452.00
2019-02-27T08:46:37.618Z,452.00
2019-02-27T08:47:36.806Z,452.00
2019-02-27T08:48:36.813Z,452.00
2019-02-27T08:49:36.827Z,452.00
2019-02-27T08:50:36.770Z,452.00
2019-02-27T08:51:36.767Z,456.00
2019-02-27T08:52:36.754Z,456.00
2019-02-27T08:53:36.764Z,456.00
2019-02-27T08:54:36.735Z,456.00
2019-02-27T08:55:39.175Z,456.00
2019-02-27T08:56:36.708Z,456.00
2019-02-27T08:57:36.699Z,456.00
2019-02-27T08:58:36.702Z,460.00
2019-02-27T08:59:36.902Z,456.00
2019-02-27T09:00:36.666Z,456.00
2019-02-27T09:01:37.828Z,456.00
2019-02-27T09:02:36.641Z,460.00
2019-02-27T09:03:37.013Z,460.00
2019-02-27T09:04:36.619Z,460.00
2019-02-27T09:05:36.611Z,460.00
2019-02-27T09:06:36.597Z,460.00
2019-02-27T09:07:37.071Z,460.00
2019-02-27T09:08:36.575Z,460.00
2019-02-27T09:09:36.581Z,460.00
2019-02-27T09:10:36.565Z,460.00
2019-02-27T09:11:37.213Z,460.00
2019-02-27T09:12:36.533Z,464.00
2019-02-27T09:13:36.535Z,464.00
2019-02-27T09:14:36.536Z,464.00
2019-02-27T09:15:36.516Z,464.00
2019-02-27T09:16:36.494Z,468.00
2019-02-27T09:17:36.485Z,468.00
2019-02-27T09:18:36.777Z,464.00
2019-02-27T09:19:36.480Z,468.00
2019-02-27T09:20:36.450Z,468.00
2019-02-27T09:21:36.446Z,468.00
2019-02-27T09:22:36.760Z,468.00
2019-02-27T09:23:36.420Z,468.00
2019-02-27T09:24:36.422Z,468.00
2019-02-27T09:25:36.401Z,468.00
2019-02-27T09:26:36.922Z,468.00
2019-02-27T09:27:36.371Z,468.00
2019-02-27T09:28:36.370Z,468.00
2019-02-27T09:29:36.370Z,468.00
2019-02-27T09:30:36.343Z,468.00
2019-02-27T09:31:37.669Z,468.00
2019-02-27T09:32:36.321Z,472.00
2019-02-27T09:33:38.885Z,472.00
2019-02-27T09:34:36.315Z,472.00
2019-02-27T09:35:38.611Z,472.00
2019-02-27T09:36:36.288Z,472.00
2019-02-27T09:37:36.273Z,472.00
2019-02-27T09:38:36.255Z,476.00
2019-02-27T09:39:36.270Z,476.00
2019-02-27T09:40:38.937Z,476.00
2019-02-27T09:41:36.235Z,476.00
2019-02-27T09:42:36.218Z,484.00
2019-02-27T09:43:36.213Z,476.00
2019-02-27T09:44:36.589Z,480.00
2019-02-27T09:45:36.193Z,480.00
2019-02-27T09:46:36.178Z,480.00
2019-02-27T09:47:36.165Z,480.00
2019-02-27T09:48:36.153Z,484.00
2019-02-27T09:49:38.023Z,484.00
2019-02-27T09:50:36.130Z,484.00
2019-02-27T09:51:36.125Z,484.00
2019-02-27T09:52:36.113Z,484.00
2019-02-27T09:53:36.807Z,488.00
2019-02-27T09:54:36.117Z,488.00
2019-02-27T09:55:36.093Z,488.00
2019-02-27T09:56:36.076Z,488.00
2019-02-27T09:57:36.755Z,488.00
2019-02-27T09:58:36.138Z,488.00
2019-02-27T09:59:36.053Z,488.00
2019-02-27T10:00:36.023Z,488.00
2019-02-27T10:01:36.013Z,492.00
2019-02-27T10:02:36.008Z,492.00
2019-02-27T10:03:35.997Z,488.00
2019-02-27T10:04:36.031Z,492.00
2019-02-27T10:05:36.758Z,488.00
2019-02-27T10:06:35.970Z,492.00
2019-02-27T10:07:35.954Z,488.00
2019-02-27T10:08:35.944Z,492.00
2019-02-27T10:09:35.955Z,492.00
2019-02-27T10:10:35.918Z,492.00
2019-02-27T10:11:35.910Z,492.00
2019-02-27T10:12:35.900Z,492.00
2019-02-27T10:13:37.966Z,496.00
2019-02-27T10:14:35.895Z,496.00
2019-02-27T10:15:35.869Z,496.00
2019-02-27T10:16:35.859Z,500.00
2019-02-27T10:17:35.847Z,496.00
2019-02-27T10:18:35.837Z,500.00
2019-02-27T10:19:35.836Z,500.00
2019-02-27T10:20:37.337Z,496.00
2019-02-27T10:21:35.800Z,500.00
2019-02-27T10:22:35.797Z,500.00
2019-02-27T10:23:35.776Z,500.00
2019-02-27T10:24:36.875Z,504.00
2019-02-27T10:25:35.765Z,500.00
2019-02-27T10:26:35.752Z,500.00
2019-02-27T10:27:35.738Z,504.00
2019-02-27T10:28:39.167Z,504.00
2019-02-27T10:29:35.731Z,500.00
2019-02-27T10:30:35.703Z,504.00
2019-02-27T10:31:35.695Z,508.00
2019-02-27T10:32:36.690Z,512.00
2019-02-27T10:33:35.673Z,516.00
2019-02-27T10:34:36.253Z,508.00
2019-02-27T10:35:35.666Z,508.00
2019-02-27T10:36:38.038Z,512.00
2019-02-27T10:37:35.674Z,508.00
2019-02-27T10:38:40.225Z,512.00
2019-02-27T10:39:37.042Z,512.00
2019-02-27T10:40:35.597Z,512.00
2019-02-27T10:41:35.590Z,512.00
2019-02-27T10:42:35.573Z,516.00
2019-02-27T10:43:35.583Z,512.00
2019-02-27T10:44:35.571Z,516.00
2019-02-27T10:45:35.545Z,516.00
2019-02-27T10:46:35.535Z,520.00
2019-02-27T10:47:36.255Z,516.00
2019-02-27T10:48:36.855Z,516.00
2019-02-27T10:49:35.529Z,516.00
2019-02-27T10:50:36.220Z,516.00
2019-02-27T10:51:35.490Z,516.00
2019-02-27T10:52:35.466Z,516.00
2019-02-27T10:53:35.455Z,520.00
2019-02-27T10:54:36.997Z,516.00
2019-02-27T10:55:35.454Z,524.00
2019-02-27T10:56:35.422Z,520.00
2019-02-27T10:57:38.427Z,520.00
2019-02-27T10:58:35.399Z,520.00
2019-02-27T10:59:35.401Z,520.00
2019-02-27T11:00:35.375Z,520.00
2019-02-27T11:01:36.381Z,520.00
2019-02-27T11:02:35.358Z,524.00
2019-02-27T11:03:35.344Z,524.00
2019-02-27T11:04:36.348Z,520.00
2019-02-27T11:05:35.326Z,528.00
2019-02-27T11:06:37.789Z,520.00
2019-02-27T11:07:35.300Z,524.00
2019-02-27T11:08:35.294Z,524.00
2019-02-27T11:09:35.303Z,528.00
2019-02-27T11:10:35.270Z,520.00
2019-02-27T11:11:35.258Z,524.00
2019-02-27T11:12:35.252Z,528.00
2019-02-27T11:13:35.241Z,528.00
2019-02-27T11:14:35.243Z,528.00
2019-02-27T11:15:35.214Z,528.00
2019-02-27T11:16:35.212Z,528.00
2019-02-27T11:17:35.205Z,524.00
2019-02-27T11:18:35.187Z,532.00
2019-02-27T11:19:35.189Z,532.00
2019-02-27T11:20:35.166Z,532.00
2019-02-27T11:21:35.154Z,532.00
2019-02-27T11:22:35.140Z,540.00
2019-02-27T11:23:35.143Z,536.00
2019-02-27T11:24:35.163Z,540.00
2019-02-27T11:25:35.114Z,544.00
2019-02-27T11:26:35.102Z,548.00
2019-02-27T11:27:36.323Z,536.00
2019-02-27T11:28:35.083Z,540.00
2019-02-27T11:29:35.096Z,536.00
2019-02-27T11:30:36.790Z,540.00
2019-02-27T11:31:35.057Z,536.00
2019-02-27T11:32:35.039Z,536.00
2019-02-27T11:33:35.032Z,536.00
2019-02-27T11:34:35.047Z,540.00
2019-02-27T11:35:35.006Z,540.00
2019-02-27T11:36:35.085Z,540.00
2019-02-27T11:37:34.992Z,540.00
2019-02-27T11:38:34.978Z,544.00
2019-02-27T11:39:34.983Z,544.00
2019-02-27T11:40:34.959Z,544.00
2019-02-27T11:41:34.946Z,548.00
2019-02-27T11:42:34.934Z,544.00
2019-02-27T11:43:34.926Z,548.00
2019-02-27T11:44:34.946Z,544.00
2019-02-27T11:45:34.909Z,548.00
2019-02-27T11:46:35.107Z,540.00
2019-02-27T11:47:34.904Z,544.00
2019-02-27T11:48:34.872Z,544.00
2019-02-27T11:49:36.262Z,544.00
2019-02-27T11:50:34.848Z,544.00
2019-02-27T11:51:34.835Z,544.00
2019-02-27T11:52:34.826Z,548.00
2019-02-27T11:53:35.943Z,540.00
2019-02-27T11:54:34.822Z,544.00
2019-02-27T11:55:34.806Z,548.00
2019-02-27T11:56:34.790Z,548.00
2019-02-27T11:57:34.779Z,548.00
2019-02-27T11:58:38.097Z,544.00
2019-02-27T11:59:34.771Z,544.00
2019-02-27T12:00:34.743Z,544.00
2019-02-27T12:01:34.742Z,548.00
2019-02-27T12:02:37.789Z,552.00
2019-02-27T12:03:34.714Z,556.00
2019-02-27T12:04:34.715Z,552.00
2019-02-27T12:05:34.693Z,556.00
2019-02-27T12:06:34.682Z,560.00
2019-02-27T12:07:34.669Z,564.00
2019-02-27T12:08:34.662Z,564.00
2019-02-27T12:09:35.138Z,564.00
2019-02-27T12:10:34.639Z,564.00
2019-02-27T12:11:34.627Z,568.00
2019-02-27T12:12:34.618Z,560.00
2019-02-27T12:13:35.003Z,560.00
2019-02-27T12:14:34.615Z,564.00
2019-02-27T12:15:34.584Z,560.00
2019-02-27T12:16:34.577Z,560.00
2019-02-27T12:17:34.570Z,560.00
2019-02-27T12:18:35.148Z,560.00
2019-02-27T12:19:34.563Z,564.00
2019-02-27T12:20:34.532Z,564.00
2019-02-27T12:21:34.522Z,568.00
2019-02-27T12:22:35.302Z,568.00
2019-02-27T12:23:34.504Z,572.00
2019-02-27T12:24:34.524Z,572.00
2019-02-27T12:25:34.487Z,568.00
2019-02-27T12:26:37.661Z,572.00
2019-02-27T12:27:48.652Z,564.00
2019-02-27T12:28:35.451Z,572.00
2019-02-27T12:29:34.444Z,568.00
2019-02-27T12:30:36.953Z,572.00
2019-02-27T12:31:34.420Z,572.00
2019-02-27T12:32:34.412Z,568.00
2019-02-27T12:33:34.530Z,568.00
2019-02-27T12:34:37.050Z,568.00
2019-02-27T12:35:34.399Z,572.00
2019-02-27T12:36:34.365Z,572.00
2019-02-27T12:37:34.943Z,568.00
2019-02-27T12:38:34.345Z,572.00
2019-02-27T12:39:34.346Z,572.00
2019-02-27T12:40:34.336Z,572.00
2019-02-27T12:41:34.316Z,568.00
2019-02-27T12:42:37.227Z,568.00
2019-02-27T12:43:34.293Z,572.00
2019-02-27T12:44:34.581Z,568.00
2019-02-27T12:45:34.307Z,568.00
2019-02-27T12:46:34.798Z,568.00
2019-02-27T12:47:34.259Z,564.00
2019-02-27T12:48:34.241Z,564.00
2019-02-27T12:49:34.227Z,564.00
2019-02-27T12:50:34.233Z,568.00